createdAt,value
2022-12-28T00:01:48.978Z,7.39
2022-12-28T00:04:16.689Z,7.51
2022-12-28T00:06:45.492Z,7.67
2022-12-28T00:09:13.560Z,7.65
2022-12-28T00:11:41.002Z,7.56
2022-12-28T00:14:08.857Z,7.52
2022-12-28T00:16:39.541Z,7.72
2022-12-28T00:19:12.023Z,7.79
2022-12-28T00:21:39.507Z,7.68
2022-12-28T00:24:07.411Z,7.61
2022-12-28T00:26:35.949Z,7.65
2022-12-28T00:29:05.589Z,7.64
2022-12-28T00:31:34.217Z,7.66
2022-12-28T00:34:02.716Z,7.57
2022-12-28T00:37:08.254Z,7.66
2022-12-28T00:39:19.856Z,7.71
2022-12-28T00:41:48.182Z,7.72
2022-12-28T00:44:15.643Z,7.70
2022-12-28T00:46:43.081Z,7.59
2022-12-28T00:49:12.055Z,7.44
2022-12-28T00:51:39.583Z,7.55
2022-12-28T00:54:07.340Z,7.51
2022-12-28T00:56:34.795Z,7.60
2022-12-28T00:59:02.531Z,7.32
2022-12-28T01:01:30.390Z,7.28
2022-12-28T01:03:59.531Z,7.31
2022-12-28T01:06:28.543Z,7.29
2022-12-28T01:08:56.423Z,7.26
2022-12-28T01:11:26.330Z,7.28
2022-12-28T01:13:56.569Z,7.21
2022-12-28T01:16:28.952Z,7.23
2022-12-28T01:18:58.973Z,7.13
2022-12-28T01:21:29.544Z,7.22
2022-12-28T01:24:00.140Z,7.24
2022-12-28T01:26:29.894Z,7.17
2022-12-28T01:28:58.383Z,7.15
2022-12-28T01:31:26.402Z,7.21
2022-12-28T01:33:54.138Z,7.02
2022-12-28T01:36:25.541Z,6.97
2022-12-28T01:38:58.149Z,6.92
2022-12-28T01:41:27.831Z,6.89
2022-12-28T01:43:55.281Z,6.96
2022-12-28T01:46:28.497Z,6.93
2022-12-28T01:49:14.037Z,6.82
2022-12-28T01:51:47.805Z,6.87
2022-12-28T01:54:15.715Z,6.92
2022-12-28T01:56:44.388Z,6.81
2022-12-28T01:59:12.492Z,6.86
2022-12-28T02:01:40.485Z,6.91
2022-12-28T02:04:08.260Z,6.80
2022-12-28T02:06:36.004Z,6.85
2022-12-28T02:09:19.069Z,6.92
2022-12-28T02:11:47.668Z,6.86
2022-12-28T02:14:16.239Z,6.69
2022-12-28T02:16:44.056Z,6.72
2022-12-28T02:19:21.384Z,6.72
2022-12-28T02:22:08.505Z,6.69
2022-12-28T02:25:11.501Z,6.74
2022-12-28T02:27:46.755Z,6.88
2022-12-28T02:30:15.218Z,7.01
2022-12-28T02:33:02.906Z,6.98
2022-12-28T02:35:53.502Z,6.90
2022-12-28T02:38:27.035Z,6.92
2022-12-28T02:41:06.336Z,6.91
2022-12-28T02:43:34.230Z,7.03
2022-12-28T02:46:31.271Z,7.00
2022-12-28T02:49:34.104Z,6.94
2022-12-28T02:52:38.612Z,6.97
2022-12-28T02:55:25.910Z,6.84
2022-12-28T02:58:12.079Z,6.93
2022-12-28T03:01:00.855Z,6.84
2022-12-28T03:03:39.802Z,6.82
2022-12-28T03:06:56.550Z,6.79
2022-12-28T03:09:44.716Z,6.85
2022-12-28T03:12:23.665Z,6.75
2022-12-28T03:15:06.617Z,6.69
2022-12-28T03:17:58.483Z,6.73
2022-12-28T03:20:50.056Z,6.69
2022-12-28T03:23:41.676Z,6.62
2022-12-28T03:26:29.908Z,6.56
2022-12-28T03:29:18.585Z,6.54
2022-12-28T03:31:46.305Z,6.64
2022-12-28T03:34:16.557Z,6.55
2022-12-28T03:37:11.919Z,6.60
2022-12-28T03:39:47.722Z,6.58
2022-12-28T03:42:49.334Z,6.51
2022-12-28T03:45:46.612Z,6.57
2022-12-28T03:48:18.193Z,6.57
2022-12-28T03:50:48.624Z,6.50
2022-12-28T03:53:19.800Z,6.54
2022-12-28T03:55:49.081Z,6.55
2022-12-28T03:58:19.762Z,6.49
2022-12-28T04:00:47.297Z,6.46
2022-12-28T04:03:15.014Z,6.50
2022-12-28T04:05:43.232Z,6.53
2022-12-28T04:08:10.930Z,6.62
2022-12-28T04:10:38.663Z,6.56
2022-12-28T04:13:06.049Z,6.67
2022-12-28T04:15:58.534Z,6.69
2022-12-28T04:18:26.045Z,6.72
2022-12-28T04:20:53.849Z,6.79
2022-12-28T04:23:21.281Z,6.68
2022-12-28T04:26:03.701Z,6.69
2022-12-28T04:28:32.234Z,6.82
2022-12-28T04:31:23.962Z,6.82
2022-12-28T04:34:00.153Z,6.83
2022-12-28T04:36:30.611Z,6.77
2022-12-28T04:39:00.396Z,6.75
2022-12-28T04:41:27.777Z,6.69
2022-12-28T04:43:55.874Z,6.69
2022-12-28T04:46:24.990Z,6.62
2022-12-28T04:48:52.900Z,6.63
2022-12-28T04:51:23.741Z,6.76
2022-12-28T04:53:51.701Z,6.64
2022-12-28T04:56:20.714Z,6.76
2022-12-28T04:58:49.858Z,6.74
2022-12-28T05:01:19.331Z,6.81
2022-12-28T05:03:54.512Z,6.82
2022-12-28T05:06:24.417Z,6.80
2022-12-28T05:08:51.963Z,6.82
2022-12-28T05:11:22.210Z,6.82
2022-12-28T05:13:50.368Z,6.87
2022-12-28T05:16:20.793Z,6.80
2022-12-28T05:18:48.467Z,6.71
2022-12-28T05:21:24.336Z,6.75
2022-12-28T05:23:52.468Z,6.67
2022-12-28T05:26:22.879Z,6.75
2022-12-28T05:28:50.699Z,6.77
2022-12-28T05:31:21.757Z,6.78
2022-12-28T05:33:49.756Z,6.85
2022-12-28T05:36:20.072Z,6.83
2022-12-28T05:38:47.992Z,6.82
2022-12-28T05:41:17.828Z,6.78
2022-12-28T05:43:46.231Z,6.77
2022-12-28T05:46:24.718Z,6.82
2022-12-28T05:48:55.129Z,6.77
2022-12-28T05:51:25.654Z,6.67
2022-12-28T05:53:53.259Z,6.65
2022-12-28T05:56:23.659Z,6.70
2022-12-28T05:59:00.466Z,6.75
2022-12-28T06:01:33.940Z,6.77
2022-12-28T06:04:07.701Z,6.71
2022-12-28T06:06:36.110Z,6.74
2022-12-28T06:09:04.345Z,6.73
2022-12-28T06:11:32.366Z,6.78
2022-12-28T06:14:00.011Z,6.85
2022-12-28T06:16:30.156Z,6.76
2022-12-28T06:18:58.640Z,6.77
2022-12-28T06:21:29.416Z,6.80
2022-12-28T06:23:59.045Z,6.82
2022-12-28T06:26:29.169Z,6.88
2022-12-28T06:28:58.945Z,6.82
2022-12-28T06:31:32.075Z,6.94
2022-12-28T06:34:01.384Z,6.98
2022-12-28T06:36:40.958Z,6.97
2022-12-28T06:39:10.483Z,6.97
2022-12-28T06:41:38.696Z,6.92
2022-12-28T06:44:11.138Z,6.92
2022-12-28T06:46:39.082Z,6.93
2022-12-28T06:49:06.529Z,6.96
2022-12-28T06:51:40.753Z,6.86
2022-12-28T06:54:09.591Z,6.85
2022-12-28T06:56:37.563Z,6.94
2022-12-28T06:59:06.024Z,6.89
2022-12-28T07:01:39.464Z,6.78
2022-12-28T07:04:08.441Z,6.82
2022-12-28T07:06:39.227Z,6.89
2022-12-28T07:09:10.603Z,6.93
2022-12-28T07:11:38.334Z,6.99
2022-12-28T07:14:05.828Z,7.07
2022-12-28T07:19:00.620Z,7.20
2022-12-28T07:21:35.891Z,7.29
2022-12-28T07:24:05.075Z,7.26
2022-12-28T07:26:34.974Z,7.33
2022-12-28T07:29:05.106Z,7.24
2022-12-28T07:31:41.764Z,7.18
2022-12-28T07:34:12.856Z,7.29
2022-12-28T07:36:40.190Z,7.33
2022-12-28T07:39:07.826Z,7.48
2022-12-28T07:41:36.289Z,7.47
2022-12-28T07:44:06.247Z,7.52
2022-12-28T07:46:36.336Z,7.56
2022-12-28T07:49:04.306Z,7.54
2022-12-28T07:51:34.957Z,7.64
2022-12-28T07:54:03.251Z,7.46
2022-12-28T07:59:02.889Z,7.32
2022-12-28T08:01:35.156Z,7.38
2022-12-28T08:04:12.904Z,7.39
2022-12-28T08:06:42.178Z,7.45
2022-12-28T08:09:11.833Z,7.35
2022-12-28T08:11:41.866Z,7.30
2022-12-28T08:14:10.185Z,7.45
2022-12-28T08:16:40.595Z,7.55
2022-12-28T08:19:09.262Z,7.59
2022-12-28T08:21:39.244Z,7.55
2022-12-28T08:24:08.163Z,7.60
2022-12-28T08:26:39.846Z,7.66
2022-12-28T08:29:11.580Z,7.72
2022-12-28T08:31:42.350Z,7.80
2022-12-28T08:34:15.704Z,7.88
2022-12-28T08:36:43.122Z,7.88
2022-12-28T08:39:10.667Z,7.84
2022-12-28T08:41:38.210Z,7.84
2022-12-28T08:44:05.931Z,7.95
2022-12-28T08:46:36.257Z,8.06
2022-12-28T08:49:05.805Z,8.16
2022-12-28T08:51:42.462Z,8.21
2022-12-28T08:54:11.759Z,8.27
2022-12-28T08:56:42.421Z,8.33
2022-12-28T08:59:28.184Z,8.42
2022-12-28T09:01:55.900Z,8.45
2022-12-28T09:04:23.493Z,8.40
2022-12-28T09:06:51.237Z,8.42
2022-12-28T09:09:20.024Z,8.46
2022-12-28T09:11:48.212Z,8.53
2022-12-28T09:14:22.693Z,8.59
2022-12-28T09:16:53.398Z,8.67
2022-12-28T09:19:21.907Z,8.79
2022-12-28T09:21:52.571Z,8.95
2022-12-28T09:24:20.790Z,9.05
2022-12-28T09:26:51.079Z,9.16
2022-12-28T09:29:18.740Z,9.17
2022-12-28T09:31:46.386Z,9.16
2022-12-28T09:37:02.568Z,9.25
2022-12-28T09:39:30.312Z,9.35
2022-12-28T09:42:21.843Z,9.41
2022-12-28T09:45:05.388Z,9.39
2022-12-28T09:47:38.870Z,9.47
2022-12-28T09:50:18.711Z,9.50
2022-12-28T09:53:03.232Z,9.57
2022-12-28T09:55:32.816Z,9.60
2022-12-28T09:58:02.409Z,9.63
2022-12-28T10:00:38.662Z,9.66
2022-12-28T10:03:15.943Z,9.77
2022-12-28T10:05:44.025Z,9.82
2022-12-28T10:08:15.812Z,9.82
2022-12-28T10:10:48.672Z,9.82
2022-12-28T10:13:53.502Z,9.90
2022-12-28T10:16:18.931Z,9.88
2022-12-28T10:18:47.943Z,9.98
2022-12-28T10:21:20.346Z,9.98
2022-12-28T10:24:29.273Z,10.02
2022-12-28T10:26:40.157Z,10.03
2022-12-28T10:29:18.119Z,10.07
2022-12-28T10:32:03.192Z,10.06
2022-12-28T10:34:34.314Z,10.13
2022-12-28T10:37:15.868Z,10.21
2022-12-28T10:40:06.308Z,10.17
2022-12-28T10:42:43.004Z,10.16
2022-12-28T10:45:22.722Z,10.19
2022-12-28T10:47:55.769Z,10.22
2022-12-28T10:50:53.030Z,10.29
2022-12-28T10:53:51.615Z,10.21
2022-12-28T10:56:44.888Z,10.30
2022-12-28T10:59:12.725Z,10.39
2022-12-28T11:01:42.708Z,10.34
2022-12-28T11:04:17.715Z,10.31
2022-12-28T11:06:55.675Z,10.43
2022-12-28T11:09:26.695Z,10.52
2022-12-28T11:11:57.011Z,10.54
2022-12-28T11:14:31.594Z,10.55
2022-12-28T11:17:26.211Z,10.54
2022-12-28T11:19:57.475Z,10.57
2022-12-28T11:22:28.098Z,10.47
2022-12-28T11:24:57.076Z,10.45
2022-12-28T11:27:24.768Z,10.44
2022-12-28T11:29:54.237Z,10.40
2022-12-28T11:32:26.045Z,10.50
2022-12-28T11:34:55.599Z,10.50
2022-12-28T11:37:23.495Z,10.67
2022-12-28T11:39:52.669Z,10.74
2022-12-28T11:42:40.645Z,10.75
2022-12-28T11:45:09.025Z,10.83
2022-12-28T11:47:36.575Z,10.91
2022-12-28T11:50:42.513Z,11.01
2022-12-28T11:53:20.957Z,11.08
2022-12-28T11:55:59.613Z,11.03
2022-12-28T11:58:30.010Z,10.98
2022-12-28T12:01:00.260Z,11.08
2022-12-28T12:03:58.877Z,11.33
2022-12-28T12:06:41.535Z,11.29
2022-12-28T12:09:21.082Z,11.41
2022-12-28T12:11:52.822Z,11.42
2022-12-28T12:14:25.329Z,11.32
2022-12-28T12:17:03.691Z,11.33
2022-12-28T12:19:37.986Z,11.44
2022-12-28T12:22:23.333Z,11.38
2022-12-28T12:25:20.411Z,11.35
2022-12-28T12:27:58.348Z,11.31
2022-12-28T12:30:27.257Z,11.45
2022-12-28T12:33:10.988Z,11.52
2022-12-28T12:35:53.510Z,11.43
2022-12-28T12:38:45.612Z,11.42
2022-12-28T12:41:42.220Z,11.53
2022-12-28T12:44:30.236Z,11.60
2022-12-28T12:47:03.726Z,11.44
2022-12-28T12:49:51.163Z,11.36
2022-12-28T12:52:51.133Z,11.36
2022-12-28T12:55:50.155Z,11.42
2022-12-28T12:58:40.633Z,11.43
2022-12-28T13:01:36.063Z,11.43
2022-12-28T13:04:09.305Z,11.43
2022-12-28T13:06:39.757Z,11.62
2022-12-28T13:09:15.779Z,11.52
2022-12-28T13:11:43.741Z,11.36
2022-12-28T13:14:23.850Z,11.34
2022-12-28T13:16:57.924Z,11.39
2022-12-28T13:19:28.311Z,11.46
2022-12-28T13:21:59.482Z,11.51
2022-12-28T13:24:45.994Z,11.72
2022-12-28T13:27:19.659Z,11.63
2022-12-28T13:29:52.784Z,11.45
2022-12-28T13:32:32.763Z,11.60
2022-12-28T13:35:16.003Z,11.61
2022-12-28T13:37:43.428Z,11.55
2022-12-28T13:40:14.497Z,11.52
2022-12-28T13:43:10.132Z,11.46
2022-12-28T13:45:37.990Z,11.45
2022-12-28T13:48:06.699Z,11.40
2022-12-28T13:50:38.121Z,11.33
2022-12-28T13:53:12.646Z,11.30
2022-12-28T13:56:02.879Z,11.36
2022-12-28T13:58:48.713Z,11.30
2022-12-28T14:01:22.029Z,11.24
2022-12-28T14:03:51.846Z,11.22
2022-12-28T14:06:20.112Z,11.22
2022-12-28T14:08:48.038Z,11.25
2022-12-28T14:11:16.899Z,11.34
2022-12-28T14:13:44.992Z,11.26
2022-12-28T14:16:13.015Z,11.28
2022-12-28T14:18:41.503Z,11.36
2022-12-28T14:21:08.879Z,11.45
2022-12-28T14:23:39.163Z,11.41
2022-12-28T14:26:21.314Z,11.39
2022-12-28T14:28:53.021Z,11.31
2022-12-28T14:31:30.999Z,11.34
2022-12-28T14:34:00.196Z,11.41
2022-12-28T14:36:34.073Z,11.28
2022-12-28T14:39:05.093Z,11.21
2022-12-28T14:41:40.999Z,11.16
2022-12-28T14:44:19.989Z,11.20
2022-12-28T14:46:47.478Z,11.04
2022-12-28T14:49:32.522Z,11.23
2022-12-28T14:52:08.805Z,11.11
2022-12-28T14:54:47.062Z,11.05
2022-12-28T14:57:57.005Z,10.91
2022-12-28T15:00:34.022Z,10.98
2022-12-28T15:03:17.770Z,10.92
2022-12-28T15:05:50.763Z,10.87
2022-12-28T15:08:22.918Z,10.88
2022-12-28T15:10:59.667Z,10.73
2022-12-28T15:13:27.667Z,10.63
2022-12-28T15:15:57.858Z,10.60
2022-12-28T15:18:27.101Z,10.62
2022-12-28T15:20:55.125Z,10.49
2022-12-28T15:23:22.934Z,10.46
2022-12-28T15:25:51.289Z,10.44
2022-12-28T15:28:20.218Z,10.37
2022-12-28T15:30:47.563Z,10.30
2022-12-28T15:33:15.023Z,10.29
2022-12-28T15:35:42.508Z,10.25
2022-12-28T15:38:11.033Z,10.21
2022-12-28T15:40:41.548Z,10.18
2022-12-28T15:43:08.925Z,10.15
2022-12-28T15:45:36.293Z,10.09
2022-12-28T15:48:05.100Z,10.05
2022-12-28T15:50:32.533Z,9.98
2022-12-28T15:53:00.623Z,9.94
2022-12-28T15:55:27.995Z,9.81
2022-12-28T15:57:55.437Z,9.79
2022-12-28T16:00:23.722Z,9.75
2022-12-28T16:02:51.426Z,9.64
2022-12-28T16:05:19.074Z,9.60
2022-12-28T16:07:46.603Z,9.55
2022-12-28T16:10:16.604Z,9.60
2022-12-28T16:13:04.460Z,9.51
2022-12-28T16:15:31.964Z,9.51
2022-12-28T16:17:59.443Z,9.43
2022-12-28T16:20:26.910Z,9.44
2022-12-28T16:22:54.454Z,9.41
2022-12-28T16:25:21.860Z,9.42
2022-12-28T16:27:49.287Z,9.33
2022-12-28T16:30:16.818Z,9.31
2022-12-28T16:32:44.216Z,9.32
2022-12-28T16:35:11.626Z,9.13
2022-12-28T16:37:39.160Z,9.24
2022-12-28T16:40:11.117Z,9.21
2022-12-28T16:42:38.688Z,9.29
2022-12-28T16:45:06.599Z,9.22
2022-12-28T16:47:36.987Z,9.11
2022-12-28T16:50:07.534Z,9.11
2022-12-28T16:52:34.903Z,9.15
2022-12-28T16:55:02.236Z,9.16
2022-12-28T16:57:29.635Z,9.17
2022-12-28T16:59:57.041Z,9.15
2022-12-28T17:02:24.583Z,9.12
2022-12-28T17:04:52.037Z,9.10
2022-12-28T17:07:19.373Z,9.11
2022-12-28T17:09:50.167Z,9.07
2022-12-28T17:12:17.814Z,9.02
2022-12-28T17:14:45.256Z,8.94
2022-12-28T17:17:12.582Z,8.96
2022-12-28T17:19:40.099Z,8.93
2022-12-28T17:22:07.504Z,8.84
2022-12-28T17:24:34.962Z,8.86
2022-12-28T17:27:08.197Z,8.75
2022-12-28T17:29:37.900Z,8.66
2022-12-28T17:32:06.037Z,8.69
2022-12-28T17:34:33.632Z,8.64
2022-12-28T17:37:01.103Z,8.56
2022-12-28T17:39:28.771Z,8.46
2022-12-28T17:41:57.697Z,8.52
2022-12-28T17:44:25.509Z,8.45
2022-12-28T17:46:52.878Z,8.42
2022-12-28T17:49:20.243Z,8.41
2022-12-28T17:51:47.581Z,8.41
2022-12-28T17:54:15.879Z,8.30
2022-12-28T17:56:44.219Z,8.22
2022-12-28T17:59:16.381Z,8.17
2022-12-28T18:01:44.344Z,8.12
2022-12-28T18:04:12.295Z,8.09
2022-12-28T18:06:40.037Z,8.08
2022-12-28T18:09:07.699Z,8.05
2022-12-28T18:11:35.148Z,7.85
2022-12-28T18:14:02.552Z,7.88
2022-12-28T18:16:30.043Z,7.97
2022-12-28T18:18:57.516Z,7.97
2022-12-28T18:21:25.064Z,8.03
2022-12-28T18:23:52.887Z,8.07
2022-12-28T18:26:29.151Z,8.03
2022-12-28T18:28:57.500Z,7.98
2022-12-28T18:31:26.841Z,7.92
2022-12-28T18:33:54.731Z,7.85
2022-12-28T18:36:22.450Z,7.93
2022-12-28T18:38:50.018Z,7.99
2022-12-28T18:41:20.740Z,7.80
2022-12-28T18:43:48.748Z,7.89
2022-12-28T18:46:16.935Z,7.92
2022-12-28T18:48:44.546Z,7.91
2022-12-28T18:51:15.083Z,7.79
2022-12-28T18:53:43.103Z,7.82
2022-12-28T18:56:21.120Z,7.67
2022-12-28T18:59:15.461Z,7.56
2022-12-28T19:04:30.366Z,7.56
2022-12-28T19:06:57.778Z,7.57
2022-12-28T19:09:25.226Z,7.59
2022-12-28T19:11:52.891Z,7.57
2022-12-28T19:14:20.339Z,7.66
2022-12-28T19:16:47.933Z,7.40
2022-12-28T19:19:17.244Z,7.38
2022-12-28T19:21:44.938Z,7.53
2022-12-28T19:24:19.554Z,7.51
2022-12-28T19:26:47.316Z,7.43
2022-12-28T19:29:16.358Z,7.47
2022-12-28T19:31:44.366Z,7.46
2022-12-28T19:34:11.913Z,7.48
2022-12-28T19:36:39.235Z,7.34
2022-12-28T19:39:06.501Z,7.43
2022-12-28T19:41:33.901Z,7.31
2022-12-28T19:44:01.499Z,7.31
2022-12-28T19:46:32.089Z,7.29
2022-12-28T19:49:01.592Z,7.35
2022-12-28T19:51:31.771Z,7.32
2022-12-28T19:54:00.221Z,7.36
2022-12-28T19:56:27.888Z,7.24
2022-12-28T19:59:07.296Z,7.12
2022-12-28T20:01:36.754Z,7.12
2022-12-28T20:04:12.472Z,7.15
2022-12-28T20:06:43.721Z,7.16
2022-12-28T20:09:12.613Z,7.19
2022-12-28T20:11:40.972Z,7.24
2022-12-28T20:14:12.206Z,7.29
2022-12-28T20:16:39.955Z,7.16
2022-12-28T20:19:09.184Z,7.25
2022-12-28T20:21:38.328Z,7.27
2022-12-28T20:24:06.264Z,7.24
2022-12-28T20:26:33.752Z,7.34
2022-12-28T20:29:02.388Z,7.46
2022-12-28T20:31:30.130Z,7.46
2022-12-28T20:33:57.565Z,7.57
2022-12-28T20:36:27.320Z,7.52
2022-12-28T20:38:55.789Z,7.47
2022-12-28T20:41:43.782Z,7.53
2022-12-28T20:44:14.110Z,7.64
2022-12-28T20:46:44.927Z,7.64
2022-12-28T20:49:13.016Z,7.54
2022-12-28T20:51:42.425Z,7.62
2022-12-28T20:54:10.883Z,7.65
2022-12-28T20:56:39.442Z,7.68
2022-12-28T20:59:34.612Z,7.66
2022-12-28T21:02:02.136Z,7.65
2022-12-28T21:04:29.796Z,7.74
2022-12-28T21:06:57.165Z,7.67
2022-12-28T21:09:24.466Z,7.57
2022-12-28T21:11:52.084Z,7.47
2022-12-28T21:14:19.597Z,7.53
2022-12-28T21:16:47.221Z,7.51
2022-12-28T21:19:14.617Z,7.52
2022-12-28T21:21:41.919Z,7.51
2022-12-28T21:24:09.238Z,7.49
2022-12-28T21:26:37.214Z,7.53
2022-12-28T21:29:04.779Z,7.54
2022-12-28T21:31:32.232Z,7.53
2022-12-28T21:33:59.590Z,7.53
2022-12-28T21:36:27.253Z,7.45
2022-12-28T21:38:54.569Z,7.42
2022-12-28T21:41:41.559Z,7.37
2022-12-28T21:44:14.315Z,7.47
2022-12-28T21:46:42.178Z,7.33
2022-12-28T21:49:09.692Z,7.18
2022-12-28T21:51:39.335Z,7.17
2022-12-28T21:54:20.853Z,7.31
2022-12-28T21:56:55.093Z,7.36
2022-12-28T21:59:25.147Z,7.34
2022-12-28T22:02:12.462Z,7.29
2022-12-28T22:05:02.494Z,7.36
2022-12-28T22:07:31.216Z,7.35
2022-12-28T22:10:17.543Z,7.31
2022-12-28T22:12:44.962Z,7.30
2022-12-28T22:15:42.199Z,7.32
2022-12-28T22:18:30.032Z,7.26
2022-12-28T22:21:05.378Z,7.27
2022-12-28T22:23:34.744Z,7.46
2022-12-28T22:26:02.905Z,7.51
2022-12-28T22:28:30.374Z,7.53
2022-12-28T22:30:57.781Z,7.52
2022-12-28T22:33:25.334Z,7.43
2022-12-28T22:35:52.670Z,7.37
2022-12-28T22:38:20.028Z,7.53
2022-12-28T22:40:57.491Z,7.60
2022-12-28T22:43:24.947Z,7.50
2022-12-28T22:46:01.324Z,7.47
2022-12-28T22:48:28.883Z,7.60
2022-12-28T22:51:01.201Z,7.65
2022-12-28T22:53:28.591Z,7.75
2022-12-28T22:55:57.795Z,7.79
2022-12-28T22:58:26.561Z,7.82
2022-12-28T23:01:05.723Z,7.77
2022-12-28T23:03:33.323Z,7.75
2022-12-28T23:06:00.909Z,7.70
2022-12-28T23:08:28.213Z,7.70
2022-12-28T23:11:00.788Z,7.62
2022-12-28T23:13:29.010Z,7.59
2022-12-28T23:16:01.382Z,7.55
2022-12-28T23:18:47.938Z,7.47
2022-12-28T23:21:39.470Z,7.47
2022-12-28T23:24:29.958Z,7.45
2022-12-28T23:27:17.538Z,7.28
2022-12-28T23:29:46.034Z,7.39
2022-12-28T23:32:13.463Z,7.29
2022-12-28T23:34:41.026Z,7.31
2022-12-28T23:37:08.433Z,7.35
2022-12-28T23:39:35.803Z,7.35
2022-12-28T23:42:03.177Z,7.39
2022-12-28T23:44:30.591Z,7.37
2022-12-28T23:46:59.550Z,7.33
2022-12-28T23:49:27.262Z,7.35
2022-12-28T23:51:54.913Z,7.32
2022-12-28T23:54:22.314Z,7.39
2022-12-28T23:56:49.606Z,7.49
2022-12-28T23:59:16.977Z,7.53
